Time;durP1;ratioP1;P1;durP2;ratioP2;P2;SDS_P1;SDS_P2;PMS_P1;PMS_P2;Temp;Humidity;BMP_temperature;BMP_pressure;BME280_temperature;BME280_humidity;BME280_pressure;Samples;Min_cycle;Max_cycle;Signal;HPM_P1;HPM_P2
2021/05/18 00:00:20;;;;;;;7.72;1.40;;;;;;;;;;4917581;29;20039;-60
2021/05/18 00:02:46;;;;;;;4.70;1.40;;;;;;;;;;4916909;29;20043;-60
2021/05/18 00:05:13;;;;;;;4.97;1.40;;;;;;;;;;4917760;29;20052;-60
2021/05/18 00:07:45;;;;;;;12.25;1.50;;;;;;;;;;4915166;29;20070;-61
2021/05/18 00:12:55;;;;;;;7.15;1.52;;;;;;;;;;4916760;29;20055;-60
2021/05/18 00:15:21;;;;;;;7.97;1.42;;;;;;;;;;4916052;29;20051;-60
2021/05/18 00:17:47;;;;;;;4.68;1.35;;;;;;;;;;4916381;29;20047;-60
2021/05/18 00:20:14;;;;;;;5.65;1.50;;;;;;;;;;4917175;29;20043;-59
2021/05/18 00:22:40;;;;;;;7.50;1.35;;;;;;;;;;4916892;29;20048;-59
2021/05/18 00:25:06;;;;;;;6.65;1.85;;;;;;;;;;4917564;29;20040;-59
2021/05/18 00:27:33;;;;;;;5.70;1.10;;;;;;;;;;4916322;29;20238;-60
2021/05/18 00:29:58;;;;;;;7.32;1.50;;;;;;;;;;4916756;29;20599;-60
2021/05/18 00:32:25;;;;;;;5.90;1.50;;;;;;;;;;4915809;29;20051;-60
2021/05/18 00:34:56;;;;;;;5.10;1.10;;;;;;;;;;4922118;29;20040;-59
2021/05/18 00:37:22;;;;;;;5.60;1.20;;;;;;;;;;4921369;29;20098;-59
2021/05/18 00:39:48;;;;;;;5.75;1.48;;;;;;;;;;4922482;29;20491;-59
2021/05/18 00:42:18;;;;;;;4.28;1.25;;;;;;;;;;4923141;29;20120;-61
2021/05/18 00:44:44;;;;;;;4.80;1.10;;;;;;;;;;4919174;29;20044;-60
2021/05/18 00:47:10;;;;;;;4.15;1.20;;;;;;;;;;4919746;29;20114;-59
2021/05/18 00:49:36;;;;;;;8.93;1.20;;;;;;;;;;4916832;29;20044;-58
2021/05/18 00:52:05;;;;;;;11.88;2.15;;;;;;;;;;4918506;29;20074;-60
2021/05/18 00:54:37;;;;;;;5.47;1.70;;;;;;;;;;4916024;29;20122;-59
2021/05/18 00:59:48;;;;;;;6.25;1.65;;;;;;;;;;4915830;29;20054;-59
2021/05/18 01:02:14;;;;;;;5.95;1.50;;;;;;;;;;4919227;29;20043;-59
2021/05/18 01:04:42;;;;;;;7.43;1.35;;;;;;;;;;4916039;29;20051;-56
2021/05/18 01:07:08;;;;;;;8.60;1.17;;;;;;;;;;4919590;29;20055;-58
2021/05/18 01:09:34;;;;;;;6.15;1.27;;;;;;;;;;4916543;29;20091;-59
2021/05/18 01:12:00;;;;;;;7.13;1.15;;;;;;;;;;4917904;29;20044;-60
2021/05/18 01:14:28;;;;;;;6.68;1.45;;;;;;;;;;4919374;29;20051;-58
2021/05/18 01:16:54;;;;;;;7.20;1.30;;;;;;;;;;4917606;29;20043;-60
2021/05/18 01:19:21;;;;;;;5.32;1.20;;;;;;;;;;4917465;29;20091;-58
2021/05/18 01:21:47;;;;;;;7.22;1.35;;;;;;;;;;4900280;29;20040;-58
2021/05/18 01:24:14;;;;;;;4.60;1.20;;;;;;;;;;4916581;29;21223;-59
2021/05/18 01:26:40;;;;;;;8.20;1.40;;;;;;;;;;4915743;29;20392;-59
2021/05/18 01:29:07;;;;;;;5.30;1.10;;;;;;;;;;4909000;29;20074;-57
2021/05/18 01:31:33;;;;;;;7.05;1.30;;;;;;;;;;4913757;29;20044;-58
2021/05/18 01:34:01;;;;;;;5.07;1.50;;;;;;;;;;4916330;29;20094;-59
2021/05/18 01:36:27;;;;;;;7.05;1.40;;;;;;;;;;4916492;29;20573;-60
2021/05/18 01:39:02;;;;;;;5.45;1.20;;;;;;;;;;4915192;29;20048;-58
2021/05/18 01:44:13;;;;;;;6.18;1.77;;;;;;;;;;4916837;29;20083;-62
2021/05/18 01:46:39;;;;;;;9.45;1.60;;;;;;;;;;4914348;29;20048;-55
2021/05/18 01:49:07;;;;;;;5.30;1.27;;;;;;;;;;4914027;29;20043;-57
2021/05/18 01:51:34;;;;;;;19.38;1.80;;;;;;;;;;4914082;29;20036;-57
2021/05/18 01:54:04;;;;;;;6.45;2.15;;;;;;;;;;4915425;29;20039;-60
2021/05/18 01:59:06;;;;;;;4.47;1.30;;;;;;;;;;4915410;29;20051;-60
2021/05/18 02:01:31;;;;;;;;;;;;;;;;;;4914796;29;20509;-58
2021/05/18 02:03:57;;;;;;;3.97;1.20;;;;;;;;;;4915476;29;19919;-59
2021/05/18 02:06:26;;;;;;;7.45;1.52;;;;;;;;;;4914638;29;20040;-61
2021/05/18 02:08:52;;;;;;;12.65;1.50;;;;;;;;;;4915798;29;20139;-61
2021/05/18 02:11:18;;;;;;;6.50;1.90;;;;;;;;;;4885608;29;20051;-61
2021/05/18 02:13:47;;;;;;;13.57;2.20;;;;;;;;;;4898795;29;20047;-56
2021/05/18 02:16:21;;;;;;;7.78;2.00;;;;;;;;;;4916943;29;20072;-57
2021/05/18 02:18:59;;;;;;;8.88;2.10;;;;;;;;;;4917962;29;20051;-59
2021/05/18 02:26:53;;;;;;;10.95;1.50;;;;;;;;;;4917335;29;20095;-59
2021/05/18 02:29:19;;;;;;;9.50;2.25;;;;;;;;;;4919798;29;20040;-58
2021/05/18 02:31:46;;;;;;;20.38;3.08;;;;;;;;;;4917281;29;20146;-60
2021/05/18 02:34:12;;;;;;;18.25;2.92;;;;;;;;;;4918876;29;20626;-56
2021/05/18 02:36:38;;;;;;;17.70;3.10;;;;;;;;;;4918596;29;20044;-57
2021/05/18 02:39:04;;;;;;;35.13;3.83;;;;;;;;;;4918835;29;20047;-56
2021/05/18 02:41:29;;;;;;;23.95;2.83;;;;;;;;;;4916932;29;20044;-58
2021/05/18 02:44:03;;;;;;;17.48;2.50;;;;;;;;;;4919722;29;20036;-60
2021/05/18 02:49:09;;;;;;;25.33;3.47;;;;;;;;;;4919007;29;20043;-57
2021/05/18 02:51:36;;;;;;;23.17;2.75;;;;;;;;;;4918181;29;20494;-59
2021/05/18 02:54:02;;;;;;;14.50;1.88;;;;;;;;;;4919707;29;20139;-60
2021/05/18 02:59:18;;;;;;;19.70;2.80;;;;;;;;;;4918879;29;20040;-58
2021/05/18 03:01:40;;;;;;;11.20;2.25;;;;;;;;;;4916823;29;20444;-59
2021/05/18 03:04:06;;;;;;;13.27;3.35;;;;;;;;;;4917501;29;20043;-56
2021/05/18 03:06:32;;;;;;;29.38;3.60;;;;;;;;;;4918864;29;20511;-59
2021/05/18 03:08:58;;;;;;;28.40;3.42;;;;;;;;;;4917218;29;20047;-56
2021/05/18 03:11:24;;;;;;;26.90;3.80;;;;;;;;;;4918913;29;20096;-59
2021/05/18 03:13:50;;;;;;;23.42;4.18;;;;;;;;;;4919665;29;20629;-58
2021/05/18 03:16:16;;;;;;;23.75;4.45;;;;;;;;;;4917141;29;20040;-58
2021/05/18 03:18:42;;;;;;;22.23;4.03;;;;;;;;;;4915922;29;20043;-57
2021/05/18 03:21:08;;;;;;;20.95;2.80;;;;;;;;;;4918083;29;20047;-58
2021/05/18 03:23:34;;;;;;;13.85;2.05;;;;;;;;;;4918687;29;20044;-57
2021/05/18 03:26:00;;;;;;;16.95;3.20;;;;;;;;;;4917563;29;20163;-57
2021/05/18 03:28:26;;;;;;;16.23;1.58;;;;;;;;;;4917470;29;20052;-57
2021/05/18 03:31:10;;;;;;;20.85;2.13;;;;;;;;;;4918263;29;20510;-57
2021/05/18 03:36:20;;;;;;;6.15;1.30;;;;;;;;;;4914289;29;20051;-56
2021/05/18 03:38:53;;;;;;;17.30;2.42;;;;;;;;;;4917032;29;20044;-56
2021/05/18 03:41:29;;;;;;;12.48;2.17;;;;;;;;;;4916511;29;20157;-55
2021/05/18 03:52:25;;;;;;;13.27;1.40;;;;;;;;;;4915880;29;20529;-57
2021/05/18 03:58:32;;;;;;;12.90;1.65;;;;;;;;;;4916776;29;20095;-57
2021/05/18 04:03:29;;;;;;;5.40;0.98;;;;;;;;;;4917822;29;20058;-56
2021/05/18 04:16:55;;;;;;;4.50;1.17;;;;;;;;;;4917714;29;20547;-57
2021/05/18 04:19:33;;;;;;;5.03;1.33;;;;;;;;;;4916049;29;20043;-55
2021/05/18 04:38:46;;;;;;;4.93;1.23;;;;;;;;;;4915795;29;20130;-57
2021/05/18 04:51:55;;;;;;;5.85;1.30;;;;;;;;;;4917314;29;20563;-57
2021/05/18 04:54:57;;;;;;;4.32;1.38;;;;;;;;;;4913852;29;20047;-55
2021/05/18 05:00:00;;;;;;;4.55;1.20;;;;;;;;;;4911875;29;20167;-56
2021/05/18 05:08:05;;;;;;;7.63;1.50;;;;;;;;;;4913171;29;20062;-57
2021/05/18 05:15:35;;;;;;;5.22;1.40;;;;;;;;;;4914430;29;20199;-56
2021/05/18 05:18:01;;;;;;;3.95;1.00;;;;;;;;;;4917109;29;20131;-55
2021/05/18 05:20:27;;;;;;;5.00;1.35;;;;;;;;;;4914487;29;20454;-56
2021/05/18 05:22:53;;;;;;;6.97;1.50;;;;;;;;;;4916918;29;20055;-55
2021/05/18 05:25:19;;;;;;;6.15;1.20;;;;;;;;;;4915403;29;20066;-57
2021/05/18 05:27:44;;;;;;;6.13;1.08;;;;;;;;;;4901133;29;20403;-57
2021/05/18 05:30:10;;;;;;;4.47;1.02;;;;;;;;;;4916887;29;20055;-56
2021/05/18 05:32:36;;;;;;;5.82;1.20;;;;;;;;;;4915033;29;20044;-56
2021/05/18 05:35:02;;;;;;;4.72;1.15;;;;;;;;;;4918166;29;20245;-56
2021/05/18 05:37:28;;;;;;;3.58;0.95;;;;;;;;;;4916203;29;20048;-56
2021/05/18 05:39:54;;;;;;;5.32;1.23;;;;;;;;;;4918173;29;20130;-54
2021/05/18 05:42:21;;;;;;;4.00;1.15;;;;;;;;;;4917211;29;20112;-56
2021/05/18 05:44:47;;;;;;;3.53;0.93;;;;;;;;;;4898796;29;20047;-56
2021/05/18 05:47:13;;;;;;;6.47;1.70;;;;;;;;;;4916535;29;20107;-57
2021/05/18 05:49:40;;;;;;;3.28;1.17;;;;;;;;;;4912955;29;20046;-57
2021/05/18 05:52:06;;;;;;;7.95;1.73;;;;;;;;;;4915911;29;20118;-57
2021/05/18 05:54:33;;;;;;;5.53;1.35;;;;;;;;;;4915977;29;20070;-57
2021/05/18 05:56:59;;;;;;;6.53;2.33;;;;;;;;;;4914263;29;20052;-56
2021/05/18 05:59:25;;;;;;;4.70;1.15;;;;;;;;;;4915683;29;20055;-56
2021/05/18 06:01:51;;;;;;;5.53;1.25;;;;;;;;;;4916850;29;20434;-57
2021/05/18 06:04:17;;;;;;;6.55;1.27;;;;;;;;;;4916196;29;20140;-53
2021/05/18 06:06:42;;;;;;;7.88;1.10;;;;;;;;;;4915926;29;20047;-55
2021/05/18 06:09:09;;;;;;;7.13;1.20;;;;;;;;;;4915158;29;20116;-57
2021/05/18 06:48:18;;;;;;;5.07;1.30;;;;;;;;;;4913369;29;20047;-56
2021/05/18 06:50:44;;;;;;;10.38;1.40;;;;;;;;;;4897999;29;20514;-56
2021/05/18 06:53:10;;;;;;;3.25;1.20;;;;;;;;;;4915162;29;20040;-55
2021/05/18 06:55:37;;;;;;;4.93;1.08;;;;;;;;;;4913449;29;20048;-56
2021/05/18 06:58:11;;;;;;;5.28;1.10;;;;;;;;;;4912462;29;20404;-55
2021/05/18 07:00:39;;;;;;;5.75;1.33;;;;;;;;;;4915171;29;20048;-56
2021/05/18 07:03:09;;;;;;;4.20;1.00;;;;;;;;;;4915875;29;20059;-56
2021/05/18 07:05:50;;;;;;;4.75;1.00;;;;;;;;;;4916885;29;20038;-52
2021/05/18 07:10:42;;;;;;;4.97;1.05;;;;;;;;;;4917401;29;20047;-56
2021/05/18 07:13:09;;;;;;;6.43;1.50;;;;;;;;;;4915956;29;22060;-56
2021/05/18 07:15:35;;;;;;;4.32;1.10;;;;;;;;;;4916051;29;20042;-57
2021/05/18 07:18:00;;;;;;;4.47;1.30;;;;;;;;;;4917446;29;20035;-57
2021/05/18 07:20:28;;;;;;;3.67;1.00;;;;;;;;;;4917979;29;20751;-57
2021/05/18 07:22:55;;;;;;;5.03;1.17;;;;;;;;;;4919639;29;20159;-54
2021/05/18 07:25:22;;;;;;;5.93;1.13;;;;;;;;;;4918792;29;20058;-57
2021/05/18 07:27:48;;;;;;;3.42;1.15;;;;;;;;;;4918509;29;20184;-56
2021/05/18 07:30:14;;;;;;;4.55;1.13;;;;;;;;;;4919154;29;20558;-58
2021/05/18 07:32:39;;;;;;;5.13;1.08;;;;;;;;;;4909698;29;20047;-58
2021/05/18 07:35:06;;;;;;;5.90;1.17;;;;;;;;;;4919192;29;20530;-58
2021/05/18 07:37:33;;;;;;;5.85;1.25;;;;;;;;;;4915544;29;20067;-57
2021/05/18 07:39:59;;;;;;;2.67;1.00;;;;;;;;;;4918643;29;20431;-57
2021/05/18 07:42:25;;;;;;;3.45;1.00;;;;;;;;;;4916504;29;20139;-58
2021/05/18 07:44:51;;;;;;;3.05;0.88;;;;;;;;;;4918522;29;20538;-58
2021/05/18 07:47:18;;;;;;;2.75;0.95;;;;;;;;;;4918377;29;20051;-58
2021/05/18 07:49:58;;;;;;;3.97;1.08;;;;;;;;;;4912490;29;20043;-55
2021/05/18 08:00:42;;;;;;;3.05;1.08;;;;;;;;;;4919267;29;20058;-58
2021/05/18 08:05:53;;;;;;;9.23;1.25;;;;;;;;;;4919033;29;20059;-57
2021/05/18 08:08:19;;;;;;;2.83;1.17;;;;;;;;;;4915491;29;20036;-57
2021/05/18 08:10:47;;;;;;;4.03;1.10;;;;;;;;;;4918740;29;20051;-57
2021/05/18 08:13:14;;;;;;;4.25;1.00;;;;;;;;;;4917216;29;20046;-55
2021/05/18 08:59:17;;;;;;;6.95;1.80;;;;;;;;;;4916531;29;20103;-57
2021/05/18 10:38:39;;;;;;;5.47;3.72;;;;;;;;;;4917746;29;20186;-57
2021/05/18 10:41:17;;;;;;;5.03;3.47;;;;;;;;;;4920848;29;20048;-57
2021/05/18 10:43:44;;;;;;;4.75;3.45;;;;;;;;;;4913321;29;20040;-57
2021/05/18 10:46:12;;;;;;;5.25;3.63;;;;;;;;;;4920018;29;20040;-55
2021/05/18 10:48:38;;;;;;;6.10;3.58;;;;;;;;;;4919900;29;20182;-55
2021/05/18 10:51:22;;;;;;;6.05;3.97;;;;;;;;;;4921069;29;22158;-57
2021/05/18 10:54:07;;;;;;;6.75;4.30;;;;;;;;;;4918365;29;20645;-57
2021/05/18 10:57:08;;;;;;;6.65;4.50;;;;;;;;;;4919144;29;20044;-56
2021/05/18 10:59:39;;;;;;;7.22;4.57;;;;;;;;;;4896977;29;20056;-56
2021/05/18 11:02:06;;;;;;;9.05;4.88;;;;;;;;;;4917457;29;20048;-56
2021/05/18 11:04:34;;;;;;;8.77;5.20;;;;;;;;;;4920547;29;20039;-56
2021/05/18 11:07:01;;;;;;;6.72;5.60;;;;;;;;;;4897502;29;20039;-55
2021/05/18 11:09:27;;;;;;;7.43;6.30;;;;;;;;;;4920032;29;20043;-55
2021/05/18 11:11:59;;;;;;;9.13;6.82;;;;;;;;;;4920940;29;20040;-55
2021/05/18 11:14:33;;;;;;;8.05;6.70;;;;;;;;;;4918213;29;20055;-56
2021/05/18 11:16:58;;;;;;;;;;;;;;;;;;4920702;29;22118;-56
2021/05/18 11:19:24;;;;;;;8.23;6.72;;;;;;;;;;4918693;29;19915;-55
2021/05/18 11:21:58;;;;;;;9.45;8.18;;;;;;;;;;4917224;29;20040;-57
2021/05/18 11:24:24;;;;;;;9.32;7.25;;;;;;;;;;4919993;29;20068;-55
2021/05/18 11:26:50;;;;;;;10.38;7.35;;;;;;;;;;4918205;29;20059;-56
2021/05/18 11:29:16;;;;;;;8.77;7.45;;;;;;;;;;4923138;29;20054;-57
2021/05/18 11:31:42;;;;;;;9.57;7.53;;;;;;;;;;4920493;29;20570;-56
2021/05/18 11:34:08;;;;;;;10.65;8.63;;;;;;;;;;4921588;29;20084;-57
2021/05/18 11:36:37;;;;;;;9.90;8.55;;;;;;;;;;4919585;29;20091;-57
2021/05/18 11:39:15;;;;;;;11.57;8.95;;;;;;;;;;4903410;29;20774;-57
2021/05/18 11:41:42;;;;;;;10.05;7.55;;;;;;;;;;4918503;29;20040;-56
2021/05/18 11:44:09;;;;;;;10.93;8.88;;;;;;;;;;4921807;29;20040;-56
2021/05/18 11:46:42;;;;;;;13.43;9.20;;;;;;;;;;4921158;29;20091;-56
2021/05/18 11:49:10;;;;;;;8.90;7.57;;;;;;;;;;4918516;29;20044;-57
2021/05/18 11:51:44;;;;;;;8.93;7.20;;;;;;;;;;4916846;29;20044;-57
2021/05/18 11:54:11;;;;;;;9.35;7.80;;;;;;;;;;4918501;29;20343;-56
2021/05/18 11:56:37;;;;;;;11.10;8.02;;;;;;;;;;4915192;29;20050;-57
2021/05/18 11:59:07;;;;;;;11.57;7.78;;;;;;;;;;4917435;29;20054;-57
2021/05/18 12:01:35;;;;;;;9.50;8.35;;;;;;;;;;4916186;29;20340;-57
2021/05/18 12:04:04;;;;;;;9.68;8.13;;;;;;;;;;4917904;29;20142;-55
2021/05/18 12:06:33;;;;;;;11.75;9.32;;;;;;;;;;4917089;29;20031;-55
2021/05/18 12:08:59;;;;;;;9.15;7.65;;;;;;;;;;4919642;29;20059;-56
2021/05/18 12:11:25;;;;;;;9.13;7.72;;;;;;;;;;4917677;29;20050;-56
2021/05/18 12:13:52;;;;;;;11.52;8.10;;;;;;;;;;4900818;29;20128;-54
2021/05/18 12:16:20;;;;;;;10.98;8.27;;;;;;;;;;4912176;29;20042;-57
2021/05/18 12:18:51;;;;;;;13.43;9.07;;;;;;;;;;4918170;29;20127;-57
2021/05/18 12:21:17;;;;;;;10.35;8.93;;;;;;;;;;4916742;29;20040;-55
2021/05/18 12:23:44;;;;;;;10.40;7.93;;;;;;;;;;4916632;29;20438;-57
2021/05/18 12:26:13;;;;;;;10.63;8.45;;;;;;;;;;4915836;29;20131;-57
2021/05/18 12:28:39;;;;;;;12.85;9.60;;;;;;;;;;4917996;29;20538;-57
2021/05/18 12:31:07;;;;;;;12.05;10.27;;;;;;;;;;4918178;29;20135;-58
2021/05/18 12:33:34;;;;;;;15.25;11.15;;;;;;;;;;4917689;29;22152;-59
2021/05/18 12:36:06;;;;;;;13.15;11.25;;;;;;;;;;4907486;29;20483;-56
2021/05/18 12:38:33;;;;;;;14.35;12.15;;;;;;;;;;4916069;29;20150;-56
2021/05/18 12:41:05;;;;;;;17.58;13.00;;;;;;;;;;4917537;29;20038;-57
2021/05/18 12:43:41;;;;;;;13.00;11.60;;;;;;;;;;4919014;29;20047;-56
2021/05/18 12:46:07;;;;;;;15.20;11.52;;;;;;;;;;4919135;29;20044;-56
2021/05/18 12:48:37;;;;;;;14.25;11.50;;;;;;;;;;4919347;29;20047;-59
2021/05/18 12:51:14;;;;;;;12.77;10.68;;;;;;;;;;4918606;29;20126;-58
2021/05/18 12:53:40;;;;;;;11.82;9.80;;;;;;;;;;4914806;28;20058;-59
2021/05/18 12:56:06;;;;;;;10.65;9.40;;;;;;;;;;4917521;29;20376;-57
2021/05/18 12:58:34;;;;;;;11.30;9.95;;;;;;;;;;4917523;29;20081;-57
2021/05/18 13:01:10;;;;;;;12.70;11.20;;;;;;;;;;4916714;29;20074;-57
2021/05/18 13:03:37;;;;;;;16.05;11.38;;;;;;;;;;4916133;29;20123;-56
2021/05/18 13:06:03;;;;;;;16.17;12.13;;;;;;;;;;4917046;29;20040;-58
2021/05/18 13:08:31;;;;;;;17.30;11.68;;;;;;;;;;4916858;29;20048;-56
2021/05/18 13:13:29;;;;;;;16.20;11.35;;;;;;;;;;4917062;29;20446;-58
2021/05/18 13:16:19;;;;;;;13.38;10.07;;;;;;;;;;4915728;29;20187;-57
2021/05/18 13:19:04;;;;;;;11.73;8.98;;;;;;;;;;4913466;29;20183;-59
2021/05/18 13:21:57;;;;;;;10.93;8.70;;;;;;;;;;4916350;29;21983;-59
2021/05/18 13:27:08;;;;;;;10.95;8.75;;;;;;;;;;4915988;29;20055;-57
2021/05/18 13:29:35;;;;;;;12.05;9.02;;;;;;;;;;4914979;29;20044;-56
2021/05/18 13:32:01;;;;;;;9.75;8.70;;;;;;;;;;4915621;29;20043;-55
2021/05/18 13:34:27;;;;;;;10.35;8.30;;;;;;;;;;4915847;29;20095;-58
2021/05/18 13:36:52;;;;;;;12.23;8.70;;;;;;;;;;4914189;29;20043;-59
2021/05/18 13:39:19;;;;;;;13.23;9.52;;;;;;;;;;4915383;29;20122;-59
2021/05/18 13:41:45;;;;;;;10.55;8.73;;;;;;;;;;4914331;29;20509;-58
2021/05/18 13:44:13;;;;;;;12.55;8.68;;;;;;;;;;4915420;29;20407;-58
2021/05/18 13:46:39;;;;;;;10.38;8.57;;;;;;;;;;4915320;29;20139;-58
2021/05/18 13:49:05;;;;;;;11.90;9.02;;;;;;;;;;4913932;29;20040;-57
2021/05/18 13:51:31;;;;;;;18.67;9.75;;;;;;;;;;4913673;29;20688;-58
2021/05/18 13:53:57;;;;;;;16.95;8.52;;;;;;;;;;4912094;29;20374;-57
2021/05/18 13:56:23;;;;;;;19.50;8.57;;;;;;;;;;4905164;29;20079;-56
2021/05/18 13:58:50;;;;;;;16.38;8.38;;;;;;;;;;4883527;29;22171;-57
2021/05/18 14:01:16;;;;;;;15.57;7.90;;;;;;;;;;4905357;29;20407;-56
2021/05/18 14:03:42;;;;;;;11.77;7.60;;;;;;;;;;4904606;29;20048;-56
2021/05/18 14:06:07;;;;;;;14.50;8.35;;;;;;;;;;4896300;29;20047;-56
2021/05/18 14:10:59;;;;;;;10.65;8.63;;;;;;;;;;4903942;29;20043;-56
2021/05/18 14:13:26;;;;;;;14.82;7.72;;;;;;;;;;4907876;29;20039;-57
2021/05/18 14:15:52;;;;;;;9.90;7.50;;;;;;;;;;4911901;29;20035;-56
2021/05/18 14:18:18;;;;;;;10.65;8.15;;;;;;;;;;4910072;29;20079;-57
2021/05/18 14:20:44;;;;;;;9.65;6.90;;;;;;;;;;4912140;29;20064;-58
2021/05/18 14:23:10;;;;;;;15.38;6.95;;;;;;;;;;4909969;29;20047;-57
2021/05/18 14:25:36;;;;;;;15.32;6.78;;;;;;;;;;4911770;29;20483;-57
2021/05/18 14:28:02;;;;;;;9.82;6.63;;;;;;;;;;4910971;29;20048;-58
2021/05/18 14:30:28;;;;;;;12.52;6.80;;;;;;;;;;4911821;29;20036;-56
2021/05/18 14:32:55;;;;;;;9.57;5.88;;;;;;;;;;4909089;29;20047;-56
2021/05/18 14:35:20;;;;;;;10.07;5.40;;;;;;;;;;4914267;29;20122;-57
2021/05/18 14:37:51;;;;;;;8.25;4.75;;;;;;;;;;4912423;29;20054;-57
2021/05/18 14:43:01;;;;;;;8.93;4.80;;;;;;;;;;4908166;29;20529;-58
2021/05/18 14:45:34;;;;;;;6.88;5.05;;;;;;;;;;4910511;29;20127;-59
2021/05/18 14:55:55;;;;;;;7.05;3.80;;;;;;;;;;4899793;29;20050;-58
2021/05/18 14:58:21;;;;;;;8.63;3.80;;;;;;;;;;4909796;29;20048;-58
2021/05/18 15:00:47;;;;;;;5.75;3.70;;;;;;;;;;4910042;29;20471;-57
2021/05/18 15:03:13;;;;;;;12.00;3.53;;;;;;;;;;4910668;29;20043;-59
2021/05/18 15:05:42;;;;;;;7.88;3.17;;;;;;;;;;4897201;29;20045;-58
2021/05/18 15:08:09;;;;;;;8.68;3.20;;;;;;;;;;4909284;29;20093;-59
2021/05/18 15:10:40;;;;;;;7.13;3.30;;;;;;;;;;4908214;29;20036;-58
2021/05/18 15:13:06;;;;;;;9.43;3.20;;;;;;;;;;4909529;29;20581;-55
2021/05/18 15:15:32;;;;;;;13.18;3.45;;;;;;;;;;4908970;29;20071;-58
2021/05/18 15:18:00;;;;;;;7.05;2.50;;;;;;;;;;4910279;29;20550;-58
2021/05/18 15:20:26;;;;;;;9.68;2.88;;;;;;;;;;4909244;29;20305;-58
2021/05/18 15:22:52;;;;;;;4.90;2.95;;;;;;;;;;4907593;29;20047;-58
2021/05/18 15:25:18;;;;;;;8.75;2.70;;;;;;;;;;4904180;29;20838;-58
2021/05/18 15:27:44;;;;;;;6.57;2.63;;;;;;;;;;4910707;29;20051;-59
2021/05/18 15:30:11;;;;;;;6.40;3.30;;;;;;;;;;4909138;29;20051;-57
2021/05/18 15:32:37;;;;;;;6.45;2.53;;;;;;;;;;4892645;29;20036;-58
2021/05/18 15:35:04;;;;;;;12.20;2.67;;;;;;;;;;4904836;29;20039;-57
2021/05/18 15:37:33;;;;;;;6.93;2.50;;;;;;;;;;4908130;29;20491;-57
2021/05/18 15:39:59;;;;;;;8.30;1.90;;;;;;;;;;4907160;29;20138;-58
2021/05/18 15:42:26;;;;;;;10.93;1.50;;;;;;;;;;4903965;29;20047;-60
2021/05/18 15:44:51;;;;;;;5.30;1.27;;;;;;;;;;4905057;29;20130;-59
2021/05/18 15:47:18;;;;;;;9.02;1.23;;;;;;;;;;4907998;29;20048;-58
2021/05/18 15:49:44;;;;;;;7.05;1.10;;;;;;;;;;4908899;29;20047;-57
2021/05/18 15:52:10;;;;;;;6.03;1.00;;;;;;;;;;4909088;29;20055;-56
2021/05/18 15:54:36;;;;;;;9.65;1.17;;;;;;;;;;4907688;29;20046;-58
2021/05/18 15:57:01;;;;;;;4.03;1.02;;;;;;;;;;4908828;29;20047;-58
2021/05/18 15:59:27;;;;;;;8.73;1.75;;;;;;;;;;4907757;29;20058;-58
2021/05/18 16:01:54;;;;;;;5.95;0.90;;;;;;;;;;4907093;29;20562;-58
2021/05/18 16:04:22;;;;;;;8.65;1.30;;;;;;;;;;4907351;29;20134;-58
2021/05/18 16:06:48;;;;;;;9.70;1.05;;;;;;;;;;4908871;29;20048;-59
2021/05/18 16:09:14;;;;;;;12.32;1.10;;;;;;;;;;4908418;29;20059;-56
2021/05/18 16:11:41;;;;;;;7.50;1.10;;;;;;;;;;4907971;29;20528;-59
2021/05/18 16:14:07;;;;;;;7.30;1.73;;;;;;;;;;4907724;29;20047;-59
2021/05/18 16:16:34;;;;;;;9.13;1.10;;;;;;;;;;4909361;29;20068;-58
2021/05/18 16:19:00;;;;;;;7.22;1.20;;;;;;;;;;4907377;29;20060;-58
2021/05/18 16:21:26;;;;;;;9.90;1.10;;;;;;;;;;4905980;29;20036;-59
2021/05/18 16:23:54;;;;;;;7.38;1.00;;;;;;;;;;4907990;29;20072;-59
2021/05/18 16:26:21;;;;;;;5.25;0.85;;;;;;;;;;4905923;29;20523;-58
2021/05/18 16:28:47;;;;;;;6.20;0.80;;;;;;;;;;4907399;29;20520;-59
2021/05/18 16:31:14;;;;;;;14.35;1.23;;;;;;;;;;4908429;29;20059;-58
2021/05/18 16:33:40;;;;;;;34.58;1.65;;;;;;;;;;4908425;29;20368;-57
2021/05/18 16:36:07;;;;;;;7.97;1.20;;;;;;;;;;4906211;29;20651;-56
2021/05/18 16:38:33;;;;;;;32.50;2.03;;;;;;;;;;4906235;29;20052;-57
2021/05/18 16:40:59;;;;;;;15.65;1.30;;;;;;;;;;4889467;29;20050;-57
2021/05/18 16:43:26;;;;;;;9.95;0.70;;;;;;;;;;4908054;29;20615;-57
2021/05/18 16:45:53;;;;;;;3.83;0.52;;;;;;;;;;4906784;29;20047;-58
2021/05/18 16:48:19;;;;;;;6.18;0.98;;;;;;;;;;4906763;29;20695;-57
2021/05/18 16:50:46;;;;;;;11.07;1.10;;;;;;;;;;4907776;29;20119;-58
2021/05/18 16:53:12;;;;;;;22.42;1.00;;;;;;;;;;4908286;29;20492;-58
2021/05/18 16:55:38;;;;;;;7.80;0.88;;;;;;;;;;4907735;29;20050;-56
2021/05/18 16:58:04;;;;;;;11.95;0.93;;;;;;;;;;4909822;29;20043;-60
2021/05/18 17:00:30;;;;;;;9.93;0.80;;;;;;;;;;4909382;29;20183;-59
2021/05/18 17:02:56;;;;;;;13.50;0.88;;;;;;;;;;4909685;29;21708;-59
2021/05/18 17:05:25;;;;;;;3.90;0.50;;;;;;;;;;4907537;29;20072;-59
2021/05/18 17:07:52;;;;;;;8.55;0.75;;;;;;;;;;4907824;29;20039;-58
2021/05/18 17:10:19;;;;;;;6.43;0.70;;;;;;;;;;4906077;29;20137;-58
2021/05/18 17:12:45;;;;;;;11.63;1.00;;;;;;;;;;4906204;29;20485;-58
2021/05/18 17:15:11;;;;;;;21.80;1.30;;;;;;;;;;4908329;29;20043;-60
2021/05/18 17:17:36;;;;;;;90.97;5.28;;;;;;;;;;4905375;29;20073;-59
2021/05/18 17:20:03;;;;;;;24.00;2.13;;;;;;;;;;4908157;29;20040;-56
2021/05/18 17:22:28;;;;;;;19.15;1.55;;;;;;;;;;4907730;29;20110;-55
2021/05/18 17:24:54;;;;;;;18.40;1.80;;;;;;;;;;4907692;29;20047;-58
2021/05/18 17:27:22;;;;;;;32.10;2.47;;;;;;;;;;4907375;29;20401;-56
2021/05/18 17:29:47;;;;;;;75.03;4.63;;;;;;;;;;4908669;29;20066;-58
2021/05/18 17:32:13;;;;;;;9.90;1.00;;;;;;;;;;4907073;29;20111;-59
2021/05/18 17:34:39;;;;;;;12.95;0.90;;;;;;;;;;4909509;29;20047;-59
2021/05/18 17:37:05;;;;;;;14.90;1.20;;;;;;;;;;4908433;29;20151;-59
2021/05/18 17:39:32;;;;;;;10.18;1.08;;;;;;;;;;4908116;29;20142;-59
2021/05/18 17:41:58;;;;;;;12.02;0.98;;;;;;;;;;4890511;29;20197;-58
2021/05/18 17:44:28;;;;;;;37.25;3.17;;;;;;;;;;4908752;29;20465;-58
2021/05/18 17:46:55;;;;;;;18.45;1.40;;;;;;;;;;4908074;29;20051;-59
2021/05/18 17:49:21;;;;;;;6.90;0.63;;;;;;;;;;4911779;29;20398;-60
2021/05/18 17:51:50;;;;;;;7.40;0.80;;;;;;;;;;4915469;29;20039;-60
2021/05/18 17:54:16;;;;;;;10.80;1.10;;;;;;;;;;4914394;29;20566;-59
2021/05/18 17:56:42;;;;;;;19.65;1.35;;;;;;;;;;4915187;29;20748;-57
2021/05/18 17:59:08;;;;;;;26.20;1.85;;;;;;;;;;4915917;29;20059;-57
2021/05/18 18:01:38;;;;;;;64.05;4.57;;;;;;;;;;4911658;29;20142;-57
2021/05/18 18:04:04;;;;;;;13.60;0.93;;;;;;;;;;4916534;29;20416;-59
2021/05/18 18:06:30;;;;;;;12.68;1.30;;;;;;;;;;4912620;29;20044;-57
2021/05/18 18:08:57;;;;;;;5.80;0.82;;;;;;;;;;4912775;29;20514;-57
2021/05/18 18:11:23;;;;;;;9.48;0.90;;;;;;;;;;4909320;29;20106;-58
2021/05/18 18:13:50;;;;;;;7.35;1.02;;;;;;;;;;4912162;29;20043;-57
2021/05/18 18:16:16;;;;;;;4.45;1.23;;;;;;;;;;4913044;29;20691;-58
2021/05/18 18:18:42;;;;;;;7.90;0.90;;;;;;;;;;4912551;29;20043;-58
2021/05/18 18:21:08;;;;;;;14.73;1.55;;;;;;;;;;4911626;29;20069;-59
2021/05/18 18:23:34;;;;;;;23.75;1.60;;;;;;;;;;4912808;29;20090;-59
2021/05/18 18:26:00;;;;;;;8.73;0.90;;;;;;;;;;4914550;29;20031;-57
2021/05/18 18:28:26;;;;;;;4.25;0.80;;;;;;;;;;4892744;29;20127;-59
2021/05/18 18:30:52;;;;;;;4.78;0.73;;;;;;;;;;4907932;29;20116;-57
2021/05/18 18:33:21;;;;;;;8.40;1.10;;;;;;;;;;4907994;29;20170;-58
2021/05/18 18:35:47;;;;;;;4.25;0.85;;;;;;;;;;4909919;29;20044;-58
2021/05/18 18:38:13;;;;;;;5.78;0.80;;;;;;;;;;4905545;29;20169;-59
2021/05/18 18:40:39;;;;;;;3.05;0.68;;;;;;;;;;4906575;29;20044;-61
2021/05/18 18:43:05;;;;;;;47.58;3.13;;;;;;;;;;4906774;29;20181;-58
2021/05/18 18:45:34;;;;;;;33.55;2.78;;;;;;;;;;4905854;29;20141;-60
2021/05/18 18:48:01;;;;;;;36.67;2.88;;;;;;;;;;4888460;29;20456;-57
2021/05/18 18:50:29;;;;;;;39.60;3.28;;;;;;;;;;4903851;29;20074;-56
2021/05/18 18:53:13;;;;;;;53.20;2.70;;;;;;;;;;4906350;29;20040;-59
2021/05/18 18:55:39;;;;;;;32.00;2.75;;;;;;;;;;4901871;29;20822;-59
2021/05/18 18:58:06;;;;;;;20.55;1.92;;;;;;;;;;4905627;29;20055;-58
2021/05/18 19:00:32;;;;;;;14.13;1.50;;;;;;;;;;4908028;29;20146;-59
2021/05/18 19:03:14;;;;;;;8.55;1.10;;;;;;;;;;4907477;29;20150;-59
2021/05/18 19:13:25;;;;;;;45.28;3.03;;;;;;;;;;4909187;29;20234;-56
2021/05/18 19:15:51;;;;;;;11.95;2.25;;;;;;;;;;4908062;29;20051;-57
2021/05/18 19:18:17;;;;;;;12.45;1.17;;;;;;;;;;4907907;29;20063;-58
2021/05/18 19:20:43;;;;;;;10.63;1.08;;;;;;;;;;4907955;29;20491;-56
2021/05/18 19:23:09;;;;;;;12.23;1.20;;;;;;;;;;4908635;29;20059;-58
2021/05/18 19:25:35;;;;;;;13.15;1.45;;;;;;;;;;4908571;29;20044;-59
2021/05/18 19:28:11;;;;;;;66.60;4.55;;;;;;;;;;4909809;29;20044;-59
2021/05/18 19:30:37;;;;;;;11.77;1.30;;;;;;;;;;4908554;29;20044;-59
2021/05/18 19:33:03;;;;;;;31.17;1.85;;;;;;;;;;4910888;29;20400;-59
2021/05/18 19:51:51;;;;;;;4.40;1.05;;;;;;;;;;4847874;29;20045;-59
2021/05/18 19:54:21;;;;;;;15.40;1.27;;;;;;;;;;4884462;29;20035;-58
2021/05/18 19:56:57;;;;;;;9.30;0.98;;;;;;;;;;4909102;29;20040;-59
2021/05/18 20:23:26;;;;;;;3.95;1.08;;;;;;;;;;4909546;29;20039;-58
2021/05/18 20:25:52;;;;;;;7.47;0.88;;;;;;;;;;4908940;29;21880;-59
2021/05/18 20:28:18;;;;;;;8.45;1.00;;;;;;;;;;4908033;29;20040;-58